SAWH/USH METAR and TAF weather

Enter ICAO airport designator
Station Type Date Time Source
SAWH METAR 2019/04/24 16:00 UTC NOAA

SAWH 241600Z 23021KT 9999 FEW050 09/03 Q1013


Station Type Date Time Source
SAWH Decoded METAR 2019/04/24 16:00 UTC NOAA

Ushuaia Aerodrome, Argentina (SAWH) 54-48S 068-19W 14M
Apr 24, 2019 - 12:00 PM EDT / 2019.04.24 1600 UTC
Wind: from the SW (230 degrees) at 24 MPH (21 KT):0
Visibility: greater than 7 mile(s):0
Sky conditions: mostly clear
Temperature: 48 F (9 C)
Dew Point: 37 F (3 C)
Relative Humidity: 66%
Pressure (altimeter): 29.91 in. Hg (1013 hPa)
ob: SAWH 241600Z 23021KT 9999 FEW050 09/03 Q1013
cycle: 16

Station Type Date Time Source
SAWH TAF 2019/04/24 12:06 UTC NOAA

TAF SAWH 241100Z 2412/2512 VRB05KT 9999 SCT030 BKN080 TX11/2418Z TN07/2512Z
BECMG 2413/2415 25015G25KT
BECMG 2419/2421 VRB05KT BKN028

Example: see airport list